Time;durP1;ratioP1;P1;durP2;ratioP2;P2;SDS_P1;SDS_P2;PMS_P1;PMS_P2;Temp;Humidity;BMP_temperature;BMP_pressure;BME280_temperature;BME280_humidity;BME280_pressure;Samples;Min_cycle;Max_cycle;Signal;HPM_P1;HPM_P2
2022/05/23 00:00:08;;;;;;;16.88;9.10;;;13.90;99.90;;;;;;5053287;28;20041;-80
2022/05/23 00:02:34;;;;;;;19.42;9.07;;;13.90;99.90;;;;;;5053155;28;20496;-80
2022/05/23 00:05:00;;;;;;;17.42;9.90;;;13.90;99.90;;;;;;5054100;28;20576;-80
2022/05/23 00:07:29;;;;;;;20.27;10.15;;;13.80;99.90;;;;;;5054224;28;20143;-80
2022/05/23 00:09:55;;;;;;;21.50;11.68;;;13.80;99.90;;;;;;5052899;28;20071;-80
2022/05/23 00:12:22;;;;;;;21.73;11.90;;;13.70;99.90;;;;;;5052743;28;20045;-80
2022/05/23 00:14:49;;;;;;;22.77;11.77;;;13.70;99.90;;;;;;5052674;28;20045;-80
2022/05/23 00:17:15;;;;;;;18.88;11.07;;;13.70;99.90;;;;;;5017083;28;1067343;-80
2022/05/23 00:19:40;;;;;;;23.50;11.65;;;13.70;99.90;;;;;;5036813;28;20095;-80
2022/05/23 00:22:06;;;;;;;19.58;10.60;;;13.70;99.90;;;;;;5037107;28;20084;-81
2022/05/23 00:24:32;;;;;;;20.40;10.15;;;13.60;99.90;;;;;;5054690;28;20045;-81
2022/05/23 00:26:58;;;;;;;18.08;10.13;;;13.60;99.90;;;;;;5054601;28;20469;-81
2022/05/23 00:29:23;;;;;;;18.95;9.88;;;13.50;99.90;;;;;;5037039;28;20056;-81
2022/05/23 00:37:19;;;;;;;22.75;10.93;;;13.50;99.90;;;;;;5036378;28;20377;-81
2022/05/23 00:39:45;;;;;;;20.63;10.85;;;13.40;99.90;;;;;;5036623;28;20067;-81
2022/05/23 00:44:59;;;;;;;22.95;11.57;;;13.40;99.90;;;;;;5054583;28;20059;-80
2022/05/23 00:47:27;;;;;;;22.00;11.50;;;13.40;99.90;;;;;;5054283;28;20037;-81
2022/05/23 00:49:53;;;;;;;18.00;10.43;;;13.30;99.90;;;;;;5036704;28;20388;-81
2022/05/23 00:52:28;;;;;;;17.33;11.30;;;13.30;99.90;;;;;;5036658;28;20067;-80
2022/05/23 00:54:57;;;;;;;21.02;10.80;;;13.30;99.90;;;;;;5036291;28;20098;-81
2022/05/23 00:57:35;;;;;;;22.52;12.48;;;13.20;99.90;;;;;;5036036;28;20048;-80
2022/05/23 01:00:05;;;;;;;19.33;10.75;;;13.30;99.90;;;;;;5054179;28;20041;-80
2022/05/23 01:02:31;;;;;;;28.35;12.23;;;13.20;99.90;;;;;;5053965;28;20511;-81
2022/05/23 01:04:57;;;;;;;22.80;12.30;;;13.10;99.90;;;;;;5036438;28;20056;-82
2022/05/23 01:07:23;;;;;;;24.95;12.98;;;13.10;99.90;;;;;;5035975;28;20041;-81
2022/05/23 01:09:50;;;;;;;21.25;12.80;;;13.10;99.90;;;;;;5036164;28;20479;-81
2022/05/23 01:12:16;;;;;;;22.80;12.63;;;13.10;99.90;;;;;;5035985;28;20128;-82
2022/05/23 01:14:48;;;;;;;18.20;12.07;;;13.10;99.90;;;;;;5036161;28;20049;-80
2022/05/23 01:17:14;;;;;;;19.70;12.13;;;13.00;99.90;;;;;;5046723;28;20052;-80
2022/05/23 01:19:39;;;;;;;24.90;12.23;;;13.00;99.90;;;;;;5053825;28;20087;-80
2022/05/23 01:22:19;;;;;;;21.20;12.10;;;13.00;99.90;;;;;;5053815;28;20389;-80
2022/05/23 01:24:48;;;;;;;17.65;12.48;;;13.00;99.90;;;;;;5052410;28;20049;-80
2022/05/23 01:27:14;;;;;;;21.63;12.88;;;12.90;99.90;;;;;;5052316;28;20041;-80
2022/05/23 01:29:44;;;;;;;22.42;12.80;;;12.90;99.90;;;;;;5053762;28;20057;-80
2022/05/23 01:32:10;;;;;;;22.00;13.48;;;12.80;99.90;;;;;;5053675;28;20041;-80
2022/05/23 01:34:36;;;;;;;27.30;14.32;;;12.80;99.90;;;;;;5052210;28;20053;-80
2022/05/23 01:37:02;;;;;;;23.23;13.55;;;12.80;99.90;;;;;;5053626;28;20048;-80
2022/05/23 01:39:28;;;;;;;22.52;14.25;;;12.80;99.90;;;;;;5052463;28;20497;-80
2022/05/23 01:41:54;;;;;;;27.17;13.63;;;12.80;99.90;;;;;;5052327;28;20049;-80
2022/05/23 01:44:19;;;;;;;21.70;13.85;;;12.80;99.90;;;;;;5052281;28;20119;-80
2022/05/23 01:46:45;;;;;;;21.25;13.75;;;12.80;99.90;;;;;;5053255;28;20037;-80
2022/05/23 01:49:11;;;;;;;23.27;13.77;;;12.80;99.90;;;;;;5052390;28;20049;-80
2022/05/23 01:51:36;;;;;;;24.08;14.07;;;12.90;99.90;;;;;;5052433;28;20033;-80
2022/05/23 01:54:02;;;;;;;26.50;14.65;;;12.90;99.90;;;;;;5053458;28;20049;-80
2022/05/23 01:56:28;;;;;;;28.80;15.40;;;12.90;99.90;;;;;;5053400;28;20547;-80
2022/05/23 02:01:37;;;;;;;24.08;15.05;;;12.90;99.90;;;;;;5052022;28;20063;-80
2022/05/23 02:04:03;;;;;;;26.10;15.75;;;13.00;99.90;;;;;;5051959;28;20053;-80
2022/05/23 02:06:29;;;;;;;27.58;15.25;;;12.90;99.90;;;;;;5052191;28;20135;-80
2022/05/23 02:08:54;;;;;;;31.73;15.13;;;13.00;99.90;;;;;;5055045;28;20508;-80
2022/05/23 02:11:20;;;;;;;25.75;15.45;;;13.00;99.90;;;;;;5056120;28;20472;-80
2022/05/23 02:13:46;;;;;;;27.30;16.27;;;12.90;99.90;;;;;;5057208;28;20072;-80
2022/05/23 02:16:12;;;;;;;28.42;15.65;;;13.00;99.90;;;;;;5056832;28;20057;-80
2022/05/23 02:18:38;;;;;;;25.13;15.52;;;12.90;99.90;;;;;;5056972;28;20071;-80
2022/05/23 02:21:04;;;;;;;23.25;15.25;;;12.90;99.90;;;;;;5039385;28;20079;-80
2022/05/23 02:23:29;;;;;;;27.42;15.35;;;13.00;99.90;;;;;;5056924;28;20396;-81
2022/05/23 02:25:55;;;;;;;27.23;16.42;;;13.00;99.90;;;;;;5039424;28;20485;-81
2022/05/23 02:28:20;;;;;;;24.25;16.30;;;13.00;99.90;;;;;;5039127;28;20110;-81
2022/05/23 02:30:47;;;;;;;37.58;15.73;;;13.00;99.90;;;;;;5038890;28;20044;-81
2022/05/23 02:33:14;;;;;;;26.33;16.17;;;13.00;99.90;;;;;;5057202;28;20481;-81
2022/05/23 02:35:40;;;;;;;25.05;15.00;;;13.00;99.90;;;;;;5038812;28;20049;-81
2022/05/23 02:38:05;;;;;;;23.23;15.18;;;13.00;99.90;;;;;;5038869;28;20090;-80
2022/05/23 02:40:31;;;;;;;27.90;15.38;;;13.00;99.90;;;;;;5056795;28;20084;-83
2022/05/23 02:42:57;;;;;;;24.13;13.10;;;13.00;99.90;;;;;;5038717;28;20397;-81
2022/05/23 02:45:22;;;;;;;25.83;14.15;;;13.00;99.90;;;;;;5056648;28;20044;-80
2022/05/23 02:47:49;;;;;;;23.20;14.73;;;13.00;99.90;;;;;;5056668;28;20056;-80
2022/05/23 02:50:14;;;;;;;22.65;14.02;;;13.00;99.90;;;;;;5056620;28;20123;-80
2022/05/23 02:52:41;;;;;;;22.50;13.55;;;13.00;99.90;;;;;;5056616;28;20140;-80
2022/05/23 02:55:08;;;;;;;23.08;13.50;;;13.00;99.90;;;;;;5038593;28;20037;-81
2022/05/23 02:57:34;;;;;;;25.17;13.35;;;13.00;99.90;;;;;;5038873;28;20048;-81
2022/05/23 03:00:00;;;;;;;24.15;13.15;;;12.90;99.90;;;;;;5038289;28;20130;-81
2022/05/23 03:05:10;;;;;;;23.30;13.32;;;12.90;99.90;;;;;;5056299;28;20044;-81
2022/05/23 03:07:36;;;;;;;24.40;12.75;;;12.90;99.90;;;;;;5038352;28;20041;-81
2022/05/23 03:10:02;;;;;;;20.42;12.35;;;12.90;99.90;;;;;;5038379;28;20045;-81
2022/05/23 03:12:28;;;;;;;20.58;13.07;;;12.90;99.90;;;;;;5038117;28;20052;-81
2022/05/23 03:14:55;;;;;;;22.20;13.55;;;12.80;99.90;;;;;;5038421;28;20126;-82
2022/05/23 03:17:20;;;;;;;21.00;12.15;;;12.80;99.90;;;;;;5049759;28;20067;-81
2022/05/23 03:19:46;;;;;;;22.35;11.95;;;12.80;99.90;;;;;;5054303;28;20053;-81
2022/05/23 03:27:42;;;;;;;16.98;12.27;;;12.80;99.90;;;;;;5054786;28;20059;-81
2022/05/23 03:30:09;;;;;;;22.52;12.50;;;12.80;99.90;;;;;;5055596;28;20091;-81
2022/05/23 03:32:34;;;;;;;24.23;13.13;;;12.70;99.90;;;;;;5054471;28;20080;-80
2022/05/23 03:35:01;;;;;;;20.48;12.80;;;12.70;99.90;;;;;;5054416;28;20084;-81
2022/05/23 03:37:27;;;;;;;23.42;13.88;;;12.70;99.90;;;;;;5054144;28;20048;-81
2022/05/23 03:39:52;;;;;;;22.55;12.98;;;12.70;99.90;;;;;;5055417;28;20048;-80
2022/05/23 03:42:18;;;;;;;25.20;13.73;;;12.70;99.90;;;;;;5054409;28;20045;-80
2022/05/23 03:44:44;;;;;;;23.10;13.38;;;12.70;99.90;;;;;;5054132;28;20041;-80
2022/05/23 03:47:10;;;;;;;20.20;12.77;;;12.70;99.90;;;;;;5054299;28;20037;-80
2022/05/23 03:49:36;;;;;;;22.58;13.60;;;12.70;99.90;;;;;;5055255;28;20087;-83
2022/05/23 03:52:02;;;;;;;21.30;12.55;;;12.70;99.90;;;;;;5055208;28;20518;-81
2022/05/23 03:54:28;;;;;;;22.15;12.70;;;12.70;99.90;;;;;;5055074;28;20504;-81
2022/05/23 03:56:59;;;;;;;22.25;13.05;;;12.70;99.90;;;;;;5054132;28;20068;-81
2022/05/23 03:59:26;;;;;;;22.40;13.75;;;12.80;99.90;;;;;;5054069;28;20124;-81
2022/05/23 04:01:54;;;;;;;25.08;13.00;;;12.80;99.90;;;;;;5053678;28;20052;-81
2022/05/23 04:04:20;;;;;;;27.38;13.82;;;12.80;99.90;;;;;;5053647;28;20067;-81
2022/05/23 04:06:46;;;;;;;25.10;13.50;;;12.80;99.90;;;;;;5053840;28;20041;-81
2022/05/23 04:09:12;;;;;;;23.13;12.35;;;12.80;99.90;;;;;;5053562;28;20124;-81
2022/05/23 04:11:38;;;;;;;30.27;14.35;;;12.80;99.90;;;;;;5053519;28;20208;-81
2022/05/23 04:14:04;;;;;;;22.08;14.00;;;12.90;99.90;;;;;;5053713;28;20045;-81
2022/05/23 04:16:29;;;;;;;27.70;15.20;;;12.90;99.90;;;;;;5053237;28;20040;-81
2022/05/23 04:18:56;;;;;;;25.60;14.40;;;12.90;99.90;;;;;;5053402;28;20098;-81
2022/05/23 04:21:23;;;;;;;28.50;15.07;;;12.90;99.90;;;;;;5053604;28;20051;-82
2022/05/23 04:23:48;;;;;;;31.88;14.77;;;12.80;99.90;;;;;;5053163;28;20481;-82
2022/05/23 04:26:15;;;;;;;27.90;14.50;;;12.90;99.90;;;;;;5053155;28;20087;-82
2022/05/23 04:28:40;;;;;;;26.25;14.75;;;12.90;99.90;;;;;;5054690;28;20044;-82
2022/05/23 04:31:07;;;;;;;25.55;15.80;;;12.90;99.90;;;;;;5053988;28;20040;-81
2022/05/23 04:36:17;;;;;;;26.13;14.85;;;12.80;99.90;;;;;;5052966;28;20083;-81
2022/05/23 04:38:43;;;;;;;27.65;15.30;;;12.90;99.90;;;;;;5052939;28;20077;-80
2022/05/23 04:41:09;;;;;;;34.70;15.68;;;12.90;99.90;;;;;;5052940;28;20037;-80
2022/05/23 04:43:34;;;;;;;31.17;16.13;;;12.90;99.90;;;;;;5052724;28;20053;-80
2022/05/23 04:46:00;;;;;;;33.03;15.70;;;12.90;99.90;;;;;;5054170;28;20099;-81
2022/05/23 04:51:10;;;;;;;30.95;16.35;;;13.00;99.90;;;;;;5052817;28;20144;-81
2022/05/23 04:53:36;;;;;;;27.60;15.10;;;13.00;99.90;;;;;;5052943;28;20131;-80
2022/05/23 04:56:02;;;;;;;35.58;16.45;;;13.10;99.90;;;;;;5052924;28;20428;-81
2022/05/23 04:58:28;;;;;;;34.80;15.88;;;13.20;99.90;;;;;;5052596;28;20055;-81
2022/05/23 05:00:54;;;;;;;29.42;15.68;;;13.20;99.90;;;;;;5054073;28;20040;-81
2022/05/23 05:03:20;;;;;;;30.52;15.93;;;13.30;99.90;;;;;;5053835;28;20052;-81
2022/05/23 05:05:46;;;;;;;24.20;15.18;;;13.30;99.90;;;;;;5052727;28;20074;-81
2022/05/23 05:08:12;;;;;;;29.30;16.00;;;13.30;99.90;;;;;;5052738;28;20485;-81
2022/05/23 05:10:38;;;;;;;27.00;16.00;;;13.30;99.90;;;;;;5052467;28;20610;-81
2022/05/23 05:13:04;;;;;;;25.08;15.30;;;13.40;99.90;;;;;;5053915;28;20120;-82
2022/05/23 05:15:29;;;;;;;26.38;15.73;;;13.40;99.90;;;;;;5052452;28;20056;-83
2022/05/23 05:17:56;;;;;;;28.10;15.05;;;13.40;99.90;;;;;;5035630;28;20056;-81
2022/05/23 05:20:23;;;;;;;28.92;15.65;;;13.40;99.90;;;;;;5035665;28;20044;-80
2022/05/23 05:22:50;;;;;;;33.70;17.88;;;13.40;99.90;;;;;;5035821;28;20083;-80
2022/05/23 05:25:17;;;;;;;31.65;17.05;;;13.50;99.90;;;;;;5035509;28;20127;-83
2022/05/23 05:27:43;;;;;;;27.42;16.27;;;13.50;99.90;;;;;;5035577;28;20059;-81
2022/05/23 05:30:11;;;;;;;29.40;16.17;;;13.70;99.90;;;;;;5053545;28;20044;-82
2022/05/23 05:32:44;;;;;;;32.08;17.20;;;13.70;99.90;;;;;;5035775;28;20507;-81
2022/05/23 05:35:36;;;;;;;32.28;16.67;;;13.90;99.90;;;;;;5035526;28;20094;-81
2022/05/23 05:38:13;;;;;;;28.85;16.45;;;14.00;99.90;;;;;;5035541;28;20045;-81
2022/05/23 05:40:40;;;;;;;26.33;16.23;;;14.10;99.90;;;;;;5053561;28;20076;-80
2022/05/23 05:43:21;;;;;;;29.42;16.48;;;14.20;99.90;;;;;;5034620;28;20045;-80
2022/05/23 05:45:58;;;;;;;34.80;16.85;;;14.50;99.90;;;;;;5035450;28;20090;-80
2022/05/23 05:48:24;;;;;;;29.08;16.60;;;14.70;99.90;;;;;;5053460;28;20037;-80
2022/05/23 05:50:50;;;;;;;24.30;16.20;;;14.80;99.90;;;;;;5035278;28;20049;-80
2022/05/23 05:53:28;;;;;;;28.50;16.48;;;14.80;99.90;;;;;;5035473;28;20044;-80
2022/05/23 05:55:55;;;;;;;28.10;15.85;;;15.00;99.90;;;;;;5053339;28;20049;-80
2022/05/23 05:58:20;;;;;;;26.92;16.42;;;15.00;99.90;;;;;;5053317;28;20041;-80
2022/05/23 06:00:46;;;;;;;30.88;16.85;;;15.00;99.90;;;;;;5053089;28;20048;-80
2022/05/23 06:03:12;;;;;;;28.73;17.38;;;15.20;99.90;;;;;;5053028;28;20124;-80
2022/05/23 06:11:24;;;;;;;30.35;16.00;;;15.40;99.90;;;;;;5053197;28;20056;-81
2022/05/23 06:13:59;;;;;;;29.17;15.82;;;15.50;99.90;;;;;;5053246;28;20068;-80
2022/05/23 06:16:27;;;;;;;26.83;16.30;;;15.50;99.90;;;;;;5052740;28;20096;-82
2022/05/23 06:18:53;;;;;;;26.63;15.82;;;15.80;99.90;;;;;;5053173;28;20072;-81
2022/05/23 06:21:20;;;;;;;30.30;15.20;;;15.90;99.90;;;;;;5035116;28;20558;-81
2022/05/23 06:23:46;;;;;;;27.50;15.80;;;15.90;99.90;;;;;;5053027;28;20041;-80
2022/05/23 06:26:16;;;;;;;24.75;16.27;;;16.00;99.90;;;;;;5053079;28;20033;-80
2022/05/23 06:28:42;;;;;;;26.40;15.85;;;16.30;99.90;;;;;;5053450;28;20107;-79
2022/05/23 06:31:09;;;;;;;25.88;15.88;;;16.40;99.90;;;;;;5035548;28;20037;-79
2022/05/23 06:33:36;;;;;;;26.17;14.98;;;16.40;99.90;;;;;;5052739;28;20370;-83
2022/05/23 06:36:03;;;;;;;25.38;15.30;;;16.40;99.90;;;;;;5034789;28;20055;-80
2022/05/23 06:38:29;;;;;;;27.40;16.65;;;16.50;99.90;;;;;;5052811;28;20047;-80
2022/05/23 06:40:55;;;;;;;26.05;15.30;;;16.50;99.90;;;;;;5034857;28;20040;-79
2022/05/23 06:43:21;;;;;;;29.10;15.07;;;16.50;99.90;;;;;;5034051;28;20132;-80
2022/05/23 06:45:47;;;;;;;24.98;14.95;;;16.60;99.90;;;;;;5052785;28;20152;-80
2022/05/23 06:48:13;;;;;;;23.98;15.82;;;16.90;99.90;;;;;;5052416;28;20509;-80
2022/05/23 06:50:39;;;;;;;25.02;14.70;;;17.00;99.90;;;;;;5033697;28;20477;-80
2022/05/23 06:53:05;;;;;;;23.45;15.00;;;17.10;99.90;;;;;;5034606;28;20048;-80
2022/05/23 06:55:31;;;;;;;24.65;13.85;;;17.20;99.90;;;;;;5038403;28;20049;-82
2022/05/23 06:57:56;;;;;;;26.38;15.13;;;17.40;99.90;;;;;;5055892;28;20049;-80
2022/05/23 07:00:22;;;;;;;24.50;14.35;;;17.60;99.90;;;;;;5038195;28;20045;-80
2022/05/23 07:02:48;;;;;;;26.30;15.00;;;17.70;99.90;;;;;;5056048;28;20045;-80
2022/05/23 07:13:35;;;;;;;20.13;14.30;;;18.40;99.90;;;;;;5037475;28;20080;-79
2022/05/23 07:16:01;;;;;;;17.42;13.80;;;18.60;99.90;;;;;;5037493;28;20053;-79
2022/05/23 07:18:27;;;;;;;22.63;13.35;;;18.60;99.90;;;;;;5037609;28;20049;-79
2022/05/23 07:20:53;;;;;;;19.42;13.15;;;18.70;99.90;;;;;;5037852;28;20124;-79
2022/05/23 07:23:19;;;;;;;22.02;13.75;;;18.80;99.90;;;;;;5054759;28;20480;-80
2022/05/23 07:25:45;;;;;;;20.98;14.23;;;18.90;99.90;;;;;;5055673;28;20045;-78
2022/05/23 07:28:11;;;;;;;22.52;14.27;;;19.00;99.90;;;;;;5037203;28;20045;-79
2022/05/23 07:30:37;;;;;;;18.63;12.93;;;19.00;99.90;;;;;;5055524;28;20035;-79
2022/05/23 07:33:02;;;;;;;21.23;14.18;;;19.00;99.90;;;;;;5055301;28;20459;-79
2022/05/23 07:35:28;;;;;;;20.02;13.73;;;19.30;99.90;;;;;;5055393;28;20049;-79
2022/05/23 07:37:54;;;;;;;19.35;13.48;;;19.50;99.90;;;;;;5055173;28;20450;-79
2022/05/23 07:40:19;;;;;;;20.40;13.43;;;19.40;99.90;;;;;;5055062;28;20048;-78
2022/05/23 07:42:45;;;;;;;18.98;12.65;;;19.60;99.90;;;;;;5037367;28;20041;-79
2022/05/23 07:45:12;;;;;;;22.05;12.68;;;19.40;99.90;;;;;;5051902;28;20045;-79
2022/05/23 07:47:38;;;;;;;20.77;13.25;;;19.60;99.90;;;;;;5052205;28;20086;-78
2022/05/23 07:50:05;;;;;;;17.55;12.57;;;19.40;99.90;;;;;;5054970;28;20072;-78
2022/05/23 07:52:31;;;;;;;20.70;14.23;;;19.30;99.90;;;;;;5054518;28;20059;-78
2022/05/23 08:00:31;;;;;;;18.85;13.80;;;19.20;99.90;;;;;;5055100;28;20135;-78
2022/05/23 08:00:34;;;;;;;18.80;13.43;;;19.20;99.90;;;;;;5036611;28;20049;-78
2022/05/23 08:03:16;;;;;;;17.13;13.55;;;19.30;99.90;;;;;;5036566;28;20087;-78
2022/05/23 08:05:43;;;;;;;;;;;19.40;99.90;;;;;;5028039;28;20083;-79
2022/05/23 08:08:08;;;;;;;19.38;13.52;;;19.40;99.90;;;;;;5031461;28;19967;-79
2022/05/23 08:10:34;;;;;;;18.10;13.95;;;19.50;99.90;;;;;;5048583;28;20479;-79
2022/05/23 08:13:02;;;;;;;23.00;13.40;;;19.50;99.90;;;;;;5036701;28;20505;-78
2022/05/23 08:15:28;;;;;;;17.83;13.10;;;19.60;99.90;;;;;;5036685;28;20040;-78
2022/05/23 08:17:54;;;;;;;21.23;13.35;;;19.80;99.90;;;;;;5036525;28;20511;-78
2022/05/23 08:20:20;;;;;;;20.08;13.15;;;20.00;99.90;;;;;;5036362;28;20051;-78
2022/05/23 08:22:51;;;;;;;18.55;13.82;;;20.00;99.90;;;;;;5035897;28;20041;-78
2022/05/23 08:25:18;;;;;;;22.10;13.35;;;20.10;99.90;;;;;;5036693;28;20129;-78
2022/05/23 08:27:44;;;;;;;21.83;13.60;;;20.10;99.90;;;;;;5036224;28;20048;-78
2022/05/23 08:30:10;;;;;;;20.30;12.70;;;20.20;99.90;;;;;;5054464;28;20045;-78
2022/05/23 08:32:35;;;;;;;17.63;13.27;;;20.30;99.90;;;;;;5035976;28;21083;-78
2022/05/23 08:35:01;;;;;;;19.08;14.73;;;20.40;99.90;;;;;;5035769;28;20060;-78
2022/05/23 08:37:27;;;;;;;19.20;13.95;;;20.50;99.90;;;;;;5036226;28;20489;-79
2022/05/23 08:39:52;;;;;;;18.08;12.25;;;20.80;99.90;;;;;;5036209;28;20033;-80
2022/05/23 08:42:56;;;;;;;18.70;13.68;;;21.20;99.90;;;;;;5036393;28;20040;-80
2022/05/23 08:45:34;;;;;;;15.05;11.80;;;21.40;99.90;;;;;;5036268;28;20052;-80
2022/05/23 08:48:28;;;;;;;16.20;11.57;;;21.50;99.90;;;;;;5053959;28;20045;-78
2022/05/23 08:51:07;;;;;;;16.92;11.98;;;21.90;99.90;;;;;;5035332;28;20503;-78
2022/05/23 08:53:37;;;;;;;20.83;12.38;;;22.10;99.90;;;;;;5035377;28;20048;-78
2022/05/23 08:56:18;;;;;;;17.48;11.15;;;22.00;99.90;;;;;;5035930;28;20531;-78
2022/05/23 08:58:52;;;;;;;17.83;11.85;;;22.40;99.90;;;;;;5035898;28;20044;-78
2022/05/23 09:01:48;;;;;;;21.90;13.77;;;22.30;99.90;;;;;;5035763;28;20052;-78
2022/05/23 09:04:47;;;;;;;17.50;12.65;;;22.40;99.90;;;;;;5033709;28;20056;-78
2022/05/23 09:07:24;;;;;;;19.65;11.45;;;22.30;99.90;;;;;;5015917;28;20052;-78
2022/05/23 09:09:51;;;;;;;16.67;11.57;;;22.40;99.90;;;;;;5016560;28;20041;-78
2022/05/23 09:12:17;;;;;;;20.42;11.43;;;22.50;99.90;;;;;;5033450;28;20042;-78
2022/05/23 09:14:43;;;;;;;16.30;11.35;;;22.70;99.90;;;;;;5015817;28;20045;-78
2022/05/23 09:17:35;;;;;;;19.20;12.48;;;22.80;99.90;;;;;;5013884;28;20042;-79
2022/05/23 09:20:16;;;;;;;19.30;12.88;;;22.60;99.90;;;;;;5014321;28;20061;-79
2022/05/23 09:22:47;;;;;;;22.38;13.43;;;22.60;99.90;;;;;;5015635;28;20108;-80
2022/05/23 09:25:16;;;;;;;20.33;13.88;;;22.80;99.90;;;;;;5015769;28;20084;-80
2022/05/23 09:28:28;;;;;;;22.48;14.50;;;23.00;99.90;;;;;;5015753;28;20052;-80
2022/05/23 09:31:00;;;;;;;18.75;13.82;;;23.10;99.90;;;;;;5007933;28;20140;-80
2022/05/23 09:33:28;;;;;;;20.33;13.63;;;23.10;99.90;;;;;;5015912;28;20041;-81
2022/05/23 09:36:16;;;;;;;18.40;13.57;;;23.00;99.90;;;;;;5015374;28;20053;-80
2022/05/23 09:38:54;;;;;;;18.90;13.35;;;22.90;99.90;;;;;;5033257;28;20047;-80
2022/05/23 09:49:55;;;;;;;29.33;11.55;;;23.50;99.90;;;;;;5033181;28;20461;-87
2022/05/23 09:52:29;;;;;;;17.58;11.45;;;23.70;99.90;;;;;;5015502;28;20507;-81
2022/05/23 09:55:08;;;;;;;19.85;12.48;;;23.90;99.90;;;;;;5015204;28;20057;-79
2022/05/23 09:57:54;;;;;;;23.77;13.77;;;24.00;99.90;;;;;;5033048;28;20064;-81
2022/05/23 10:00:23;;;;;;;23.83;14.18;;;24.10;99.90;;;;;;5033221;28;20060;-80
2022/05/23 10:02:57;;;;;;;17.45;12.73;;;24.00;99.90;;;;;;5015193;28;20049;-81
2022/05/23 10:05:38;;;;;;;18.02;11.88;;;23.90;99.90;;;;;;5032958;28;20548;-78
2022/05/23 10:08:08;;;;;;;20.75;13.13;;;24.10;99.90;;;;;;5015284;28;20045;-78
2022/05/23 10:10:39;;;;;;;19.33;12.48;;;24.30;99.90;;;;;;5032857;28;20409;-79
2022/05/23 10:13:24;;;;;;;22.08;14.98;;;24.50;99.90;;;;;;5033096;28;20049;-78
2022/05/23 10:15:57;;;;;;;18.33;11.07;;;24.30;99.90;;;;;;5032707;28;20042;-78
2022/05/23 10:18:29;;;;;;;16.33;11.48;;;24.50;99.90;;;;;;5015184;28;20176;-79
2022/05/23 10:20:56;;;;;;;23.60;13.73;;;24.40;99.90;;;;;;5015154;28;20149;-79
2022/05/23 10:23:29;;;;;;;24.80;14.13;;;24.20;99.90;;;;;;5014944;28;20061;-79
2022/05/23 10:26:13;;;;;;;21.15;13.35;;;24.10;99.90;;;;;;5015094;28;20038;-79
2022/05/23 10:28:54;;;;;;;21.23;11.75;;;23.90;99.90;;;;;;5015922;28;20112;-79
2022/05/23 10:31:26;;;;;;;20.42;11.43;;;24.00;99.90;;;;;;5019105;28;20136;-79
2022/05/23 10:34:41;;;;;;;14.05;10.38;;;24.00;99.90;;;;;;5018729;28;20042;-79
2022/05/23 10:37:15;;;;;;;19.25;11.15;;;24.00;99.90;;;;;;5029729;28;20050;-79
2022/05/23 10:42:40;;;;;;;29.23;12.45;;;23.90;99.90;;;;;;5018541;28;20060;-79
2022/05/23 10:45:23;;;;;;;17.80;11.40;;;23.90;99.90;;;;;;5018537;28;20054;-79
2022/05/23 10:48:07;;;;;;;;;;;23.80;99.90;;;;;;5018981;28;20116;-79
2022/05/23 10:50:47;;;;;;;18.77;11.07;;;23.80;99.90;;;;;;5036396;28;19921;-79
2022/05/23 10:53:47;;;;;;;16.02;9.32;;;24.00;99.90;;;;;;5018476;28;20042;-79
2022/05/23 10:56:25;;;;;;;14.68;9.18;;;24.40;99.90;;;;;;5018501;28;20510;-79
2022/05/23 10:58:59;;;;;;;13.70;9.80;;;24.80;99.90;;;;;;5018595;28;20056;-79
2022/05/23 11:01:53;;;;;;;15.13;10.07;;;25.20;99.90;;;;;;5018546;28;20052;-79
2022/05/23 11:04:27;;;;;;;22.80;9.65;;;25.30;99.90;;;;;;5018198;28;20060;-80
2022/05/23 11:06:53;;;;;;;18.20;9.25;;;25.60;99.90;;;;;;5018300;28;20038;-79
2022/05/23 11:10:01;;;;;;;17.40;9.63;;;25.50;99.90;;;;;;5035884;28;20072;-79
2022/05/23 11:12:41;;;;;;;12.93;8.10;;;25.30;99.90;;;;;;5018659;28;20136;-79
2022/05/23 11:15:38;;;;;;;13.48;7.30;;;25.50;99.90;;;;;;5035965;28;20046;-79
2022/05/23 11:18:17;;;;;;;12.38;7.72;;;25.80;99.90;;;;;;5017977;28;20407;-79
2022/05/23 11:20:43;;;;;;;13.48;7.50;;;25.80;99.90;;;;;;5017422;28;20050;-79
2022/05/23 11:23:29;;;;;;;9.80;6.05;;;26.00;99.90;;;;;;5017889;28;20048;-79
2022/05/23 11:26:22;;;;;;;12.63;7.18;;;26.00;99.60;;;;;;5035773;28;20053;-79
2022/05/23 11:34:36;;;;;;;10.23;6.72;;;26.00;99.90;;;;;;5017906;28;20144;-84
2022/05/23 11:37:42;;;;;;;15.40;7.18;;;26.10;98.60;;;;;;5017392;28;20623;-83
2022/05/23 11:40:01;;;;;;;48.67;27.33;;;26.10;99.90;;;;;;5028201;28;20045;-84
2022/05/23 11:42:34;;;;;;;13.00;7.50;;;26.30;98.30;;;;;;5054851;28;20395;-80
2022/05/23 11:45:57;;;;;;;21.00;8.50;;;26.30;97.80;;;;;;5055030;28;20056;-81
2022/05/23 11:47:57;;;;;;;12.82;6.95;;;26.30;99.60;;;;;;5054400;28;20052;-81
2022/05/23 11:50:26;;;;;;;8.52;6.22;;;26.40;96.50;;;;;;5037698;28;20071;-81
2022/05/23 11:53:13;;;;;;;9.40;6.18;;;26.40;98.70;;;;;;5055115;28;20044;-80
2022/05/23 11:55:50;;;;;;;12.40;5.65;;;26.50;96.60;;;;;;5054858;28;20511;-80
2022/05/23 11:58:30;;;;;;;11.32;5.80;;;26.60;94.80;;;;;;5036841;28;20503;-80
2022/05/23 12:01:11;;;;;;;10.30;6.00;;;26.70;93.60;;;;;;5036946;28;20053;-80
2022/05/23 12:03:55;;;;;;;11.65;6.63;;;26.40;93.40;;;;;;5037009;28;20124;-81
2022/05/23 12:06:24;;;;;;;12.95;6.38;;;26.40;94.00;;;;;;5036753;28;20489;-81
2022/05/23 12:09:01;;;;;;;15.07;7.10;;;26.30;93.40;;;;;;5054661;28;20045;-79
2022/05/23 12:11:29;;;;;;;14.27;6.65;;;26.10;89.60;;;;;;5036713;28;20068;-79
2022/05/23 12:14:12;;;;;;;11.18;6.55;;;26.10;93.20;;;;;;5036483;28;20045;-80
2022/05/23 12:17:01;;;;;;;;;;;26.00;92.90;;;;;;5037092;28;20547;-80
2022/05/23 12:19:49;;;;;;;15.85;8.73;;;25.70;93.90;;;;;;5036850;28;19945;-79
2022/05/23 12:22:37;;;;;;;20.75;11.40;;;25.80;99.10;;;;;;5054542;28;20095;-79
2022/05/23 12:25:09;;;;;;;10.02;7.72;;;25.80;99.90;;;;;;5054586;28;20056;-80
2022/05/23 12:27:37;;;;;;;15.05;7.00;;;25.90;98.90;;;;;;5036494;28;20504;-79
2022/05/23 12:30:22;;;;;;;10.80;7.05;;;26.00;97.10;;;;;;5036174;28;20053;-79
2022/05/23 12:32:55;;;;;;;17.67;8.13;;;25.90;94.00;;;;;;5036411;28;20049;-79
2022/05/23 12:35:53;;;;;;;14.68;9.02;;;25.90;99.40;;;;;;5036581;28;20056;-80
2022/05/23 12:38:54;;;;;;;14.07;8.15;;;26.00;93.80;;;;;;5036279;28;20056;-79
2022/05/23 12:41:43;;;;;;;14.68;7.82;;;26.00;95.00;;;;;;5054380;28;20045;-80
2022/05/23 12:44:24;;;;;;;14.23;8.38;;;26.20;95.60;;;;;;5053881;28;20049;-78
2022/05/23 12:47:36;;;;;;;12.65;8.18;;;26.10;93.10;;;;;;5036138;28;20102;-78
2022/05/23 12:50:44;;;;;;;15.60;7.45;;;26.00;97.10;;;;;;5034437;28;20559;-78
2022/05/23 12:53:37;;;;;;;13.55;7.45;;;26.30;98.70;;;;;;5053372;28;20045;-78
2022/05/23 12:56:37;;;;;;;15.20;7.47;;;26.40;96.60;;;;;;5052745;28;20135;-79
2022/05/23 12:59:15;;;;;;;14.07;7.95;;;26.50;93.80;;;;;;5018906;28;20127;-79
2022/05/23 13:01:45;;;;;;;15.73;7.65;;;26.40;94.10;;;;;;5033923;28;20042;-78
2022/05/23 13:04:14;;;;;;;12.27;8.57;;;26.20;96.00;;;;;;5015848;28;20056;-78
2022/05/23 13:07:10;;;;;;;14.77;8.43;;;26.00;95.40;;;;;;5015948;28;20037;-79
2022/05/23 13:09:54;;;;;;;14.10;8.80;;;25.80;95.70;;;;;;4988793;28;20053;-79
2022/05/23 13:12:25;;;;;;;15.85;9.68;;;25.50;95.70;;;;;;5033917;28;20049;-79
2022/05/23 13:14:58;;;;;;;15.43;8.60;;;25.20;97.80;;;;;;5020615;28;20044;-78
2022/05/23 13:17:28;;;;;;;;;;;25.00;99.50;;;;;;5032632;28;20134;-79
2022/05/23 13:22:38;;;;;;;13.95;7.97;;;25.00;99.90;;;;;;5033528;28;20057;-79
2022/05/23 13:25:04;;;;;;;13.82;8.48;;;24.80;99.90;;;;;;5033605;28;20081;-79
2022/05/23 13:27:48;;;;;;;13.60;8.60;;;24.60;99.20;;;;;;5033641;28;20112;-79
2022/05/23 13:30:17;;;;;;;18.17;8.55;;;24.60;99.90;;;;;;5052220;28;20493;-79
2022/05/23 13:32:44;;;;;;;14.57;8.65;;;24.50;99.90;;;;;;5035365;28;20518;-78
2022/05/23 13:35:23;;;;;;;15.82;8.25;;;24.40;99.90;;;;;;5053070;28;20048;-78
2022/05/23 13:37:49;;;;;;;14.30;8.20;;;24.40;99.90;;;;;;5035607;28;20539;-78
2022/05/23 13:40:29;;;;;;;16.35;8.43;;;24.30;99.90;;;;;;5053122;28;20041;-78
2022/05/23 13:43:23;;;;;;;14.02;9.75;;;24.30;99.90;;;;;;5035378;28;20183;-78
2022/05/23 13:46:21;;;;;;;18.30;11.02;;;24.10;99.90;;;;;;5053341;28;20127;-78
2022/05/23 13:48:54;;;;;;;13.07;8.82;;;24.00;99.90;;;;;;5027541;28;20072;-78
2022/05/23 13:51:25;;;;;;;19.77;10.30;;;23.80;99.90;;;;;;5035011;28;20072;-78
2022/05/23 13:54:08;;;;;;;19.30;10.27;;;23.60;99.90;;;;;;5035010;28;20491;-78